createdAt,value
2018-07-17T00:00:10.088Z,86.10
2018-07-17T00:02:39.277Z,88.20
2018-07-17T00:05:09.122Z,86.40
2018-07-17T00:07:38.310Z,86.90
2018-07-17T00:10:07.741Z,86.20
2018-07-17T00:12:36.949Z,86.00
2018-07-17T00:15:05.819Z,85.70
2018-07-17T00:17:35.166Z,86.10
2018-07-17T00:20:04.127Z,85.40
2018-07-17T00:22:32.993Z,84.90
2018-07-17T00:25:01.875Z,84.30
2018-07-17T00:27:30.754Z,84.70
2018-07-17T00:29:59.632Z,85.20
2018-07-17T00:32:28.546Z,86.50
2018-07-17T00:34:57.445Z,86.50
2018-07-17T00:37:26.318Z,86.70
2018-07-17T00:39:55.291Z,88.00
2018-07-17T00:42:24.254Z,88.00
2018-07-17T00:44:53.152Z,87.90
2018-07-17T00:47:22.042Z,87.80
2018-07-17T00:49:50.942Z,87.90
2018-07-17T00:52:19.842Z,87.90
2018-07-17T00:54:48.747Z,87.50
2018-07-17T00:57:17.619Z,88.00
2018-07-17T00:59:46.503Z,87.20
2018-07-17T01:02:20.779Z,86.10
2018-07-17T01:04:54.957Z,85.90
2018-07-17T01:07:29.210Z,87.60
2018-07-17T01:10:03.607Z,86.90
2018-07-17T01:12:31.730Z,87.40
2018-07-17T01:15:07.679Z,87.40
2018-07-17T01:17:37.055Z,87.40
2018-07-17T01:20:06.250Z,89.00
2018-07-17T01:22:35.170Z,88.30
2018-07-17T01:25:04.065Z,88.00
2018-07-17T01:27:32.962Z,87.40
2018-07-17T01:30:01.851Z,87.40
2018-07-17T01:32:30.730Z,88.50
2018-07-17T01:34:59.634Z,89.10
2018-07-17T01:37:28.494Z,89.90
2018-07-17T01:39:57.486Z,88.60
2018-07-17T01:42:26.371Z,88.90
2018-07-17T01:44:55.260Z,88.50
2018-07-17T01:47:24.136Z,89.00
2018-07-17T01:49:53.042Z,90.10
2018-07-17T01:52:21.918Z,90.30
2018-07-17T01:54:50.808Z,88.40
2018-07-17T01:57:19.699Z,89.30
2018-07-17T01:59:48.613Z,89.00
2018-07-17T02:02:17.543Z,89.80
2018-07-17T02:04:46.523Z,90.00
2018-07-17T02:07:15.361Z,90.00
2018-07-17T02:09:44.251Z,90.30
2018-07-17T02:12:13.130Z,90.50
2018-07-17T02:14:42.023Z,90.60
2018-07-17T02:17:10.894Z,90.30
2018-07-17T02:19:39.755Z,90.30
2018-07-17T02:22:08.674Z,90.70
2018-07-17T02:24:37.559Z,91.50
2018-07-17T02:27:06.748Z,91.50
2018-07-17T02:29:35.618Z,91.20
2018-07-17T02:32:04.509Z,91.30
2018-07-17T02:34:33.387Z,91.40
2018-07-17T02:37:02.338Z,91.10
2018-07-17T02:39:31.195Z,91.70
2018-07-17T02:44:28.656Z,91.00
2018-07-17T02:46:57.559Z,91.90
2018-07-17T02:49:26.419Z,91.50
2018-07-17T02:51:55.309Z,91.30
2018-07-17T02:54:24.214Z,91.50
2018-07-17T02:56:53.129Z,90.90
2018-07-17T02:59:22.219Z,91.10
2018-07-17T03:01:51.103Z,91.30
2018-07-17T03:04:19.991Z,91.50
2018-07-17T03:06:48.924Z,91.80
2018-07-17T03:09:17.791Z,92.30
2018-07-17T03:11:47.073Z,92.40
2018-07-17T03:14:15.975Z,92.60
2018-07-17T03:16:44.871Z,93.40
2018-07-17T03:19:13.739Z,93.40
2018-07-17T03:21:42.642Z,93.70
2018-07-17T03:24:11.755Z,93.40
2018-07-17T03:26:40.746Z,93.30
2018-07-17T03:29:09.697Z,93.40
2018-07-17T03:31:38.598Z,93.80
2018-07-17T03:34:07.494Z,93.30
2018-07-17T03:36:36.474Z,92.70
2018-07-17T03:39:07.131Z,92.40
2018-07-17T03:41:36.067Z,93.20
2018-07-17T03:44:04.951Z,93.50
2018-07-17T03:46:33.880Z,93.40
2018-07-17T03:49:02.731Z,92.80
2018-07-17T03:51:31.606Z,92.80
2018-07-17T03:54:00.511Z,92.90
2018-07-17T03:56:29.380Z,93.10
2018-07-17T03:58:58.270Z,93.00
2018-07-17T04:01:27.158Z,93.20
2018-07-17T04:03:56.066Z,93.40
2018-07-17T04:06:25.127Z,93.30
2018-07-17T04:08:54.012Z,93.30
2018-07-17T04:11:22.907Z,93.40
2018-07-17T04:13:51.794Z,93.00
2018-07-17T04:16:20.687Z,92.40
2018-07-17T04:18:49.770Z,93.00
2018-07-17T04:21:18.679Z,93.30
2018-07-17T04:23:47.603Z,92.90
2018-07-17T04:26:16.572Z,92.60
2018-07-17T04:28:45.440Z,92.20
2018-07-17T04:31:14.318Z,93.00
2018-07-17T04:33:43.246Z,93.60
2018-07-17T04:36:12.162Z,93.80
2018-07-17T04:38:41.038Z,94.10
2018-07-17T04:41:10.023Z,94.10
2018-07-17T04:43:38.890Z,93.60
2018-07-17T04:46:07.782Z,93.70
2018-07-17T04:48:36.650Z,93.40
2018-07-17T04:51:05.551Z,92.90
2018-07-17T04:53:34.530Z,91.90
2018-07-17T04:56:03.426Z,91.30
2018-07-17T04:58:32.301Z,91.60
2018-07-17T05:01:01.205Z,90.90
2018-07-17T05:03:30.110Z,89.80
2018-07-17T05:05:58.975Z,89.70
2018-07-17T05:08:27.984Z,89.00
2018-07-17T05:10:57.411Z,87.60
2018-07-17T05:13:26.328Z,87.60
2018-07-17T05:15:55.226Z,89.20
2018-07-17T05:18:24.110Z,90.00
2018-07-17T05:20:53.001Z,90.10
2018-07-17T05:23:21.920Z,90.30
2018-07-17T05:25:50.877Z,91.40
2018-07-17T05:28:19.762Z,91.50
2018-07-17T05:30:48.656Z,91.80
2018-07-17T05:33:17.553Z,91.60
2018-07-17T05:35:46.447Z,91.40
2018-07-17T05:38:15.354Z,89.90
2018-07-17T05:40:44.258Z,90.70
2018-07-17T05:43:13.164Z,90.40
2018-07-17T05:45:42.047Z,90.00
2018-07-17T05:48:10.934Z,89.80
2018-07-17T05:50:39.846Z,90.10
2018-07-17T05:53:08.754Z,88.40
2018-07-17T05:55:37.649Z,87.10
2018-07-17T05:58:06.589Z,87.30
2018-07-17T06:00:35.465Z,86.40
2018-07-17T06:03:04.367Z,85.30
2018-07-17T06:05:33.278Z,82.40
2018-07-17T06:08:02.174Z,81.90
2018-07-17T06:10:31.046Z,81.70
2018-07-17T06:12:59.943Z,81.70
2018-07-17T06:15:28.851Z,82.00
2018-07-17T06:17:57.790Z,81.40
2018-07-17T06:20:26.690Z,80.00
2018-07-17T06:22:55.594Z,80.20
2018-07-17T06:25:24.494Z,80.30
2018-07-17T06:27:53.543Z,78.50
2018-07-17T06:30:22.463Z,78.70
2018-07-17T06:32:51.383Z,75.60
2018-07-17T06:35:20.323Z,77.20
2018-07-17T06:37:49.223Z,75.00
2018-07-17T06:40:18.122Z,74.00
2018-07-17T06:42:47.035Z,73.90
2018-07-17T06:45:15.903Z,73.80
2018-07-17T06:47:44.885Z,73.30
2018-07-17T06:50:13.824Z,70.10
2018-07-17T06:52:42.687Z,70.10
2018-07-17T06:55:11.566Z,69.00
2018-07-17T07:02:37.770Z,67.70
2018-07-17T07:05:06.718Z,67.60
2018-07-17T07:07:35.609Z,65.50
2018-07-17T07:10:04.546Z,65.50
2018-07-17T07:12:33.472Z,65.30
2018-07-17T07:15:02.365Z,63.50
2018-07-17T07:17:31.282Z,61.10
2018-07-17T07:20:00.154Z,60.30
2018-07-17T07:22:29.091Z,59.40
2018-07-17T07:24:57.978Z,58.90
2018-07-17T07:27:26.894Z,58.00
2018-07-17T07:29:55.762Z,54.90
2018-07-17T07:32:24.658Z,55.00
2018-07-17T07:34:53.566Z,55.10
2018-07-17T07:37:22.522Z,54.60
2018-07-17T07:39:51.422Z,54.60
2018-07-17T07:42:20.337Z,54.10
2018-07-17T07:44:49.338Z,53.20
2018-07-17T07:47:18.205Z,55.00
2018-07-17T07:49:47.099Z,54.80
2018-07-17T07:52:16.030Z,53.10
2018-07-17T07:54:44.910Z,51.70
2018-07-17T07:57:13.886Z,49.80
2018-07-17T07:59:42.860Z,49.80
2018-07-17T08:02:11.955Z,50.60
2018-07-17T08:04:40.903Z,48.70
2018-07-17T08:07:09.790Z,47.10
2018-07-17T08:09:38.697Z,47.90
2018-07-17T08:12:07.720Z,47.40
2018-07-17T08:14:36.751Z,46.40
2018-07-17T08:17:05.630Z,45.90
2018-07-17T08:19:34.586Z,43.30
2018-07-17T08:22:03.574Z,43.20
2018-07-17T08:24:32.459Z,42.70
2018-07-17T08:27:01.322Z,44.00
2018-07-17T08:29:30.195Z,42.70
2018-07-17T08:31:59.157Z,43.20
2018-07-17T08:34:28.043Z,42.00
2018-07-17T08:36:56.915Z,41.10
2018-07-17T08:39:25.793Z,40.30
2018-07-17T08:41:54.699Z,40.60
2018-07-17T08:44:23.706Z,40.00
2018-07-17T08:46:52.586Z,39.50
2018-07-17T08:49:21.557Z,39.30
2018-07-17T08:51:50.416Z,40.20
2018-07-17T08:54:19.364Z,39.60
2018-07-17T08:56:48.265Z,38.80
2018-07-17T08:59:17.287Z,37.30
2018-07-17T09:01:46.167Z,37.40
2018-07-17T09:04:15.066Z,34.90
2018-07-17T09:06:44.035Z,34.60
2018-07-17T09:09:12.921Z,34.20
2018-07-17T09:11:41.815Z,35.50
2018-07-17T09:14:10.730Z,34.40
2018-07-17T09:16:39.614Z,32.60
2018-07-17T09:21:37.059Z,32.40
2018-07-17T09:24:05.930Z,32.10
2018-07-17T09:26:34.826Z,32.80
2018-07-17T09:29:03.773Z,33.70
2018-07-17T09:31:32.650Z,32.30
2018-07-17T09:34:01.682Z,31.10
2018-07-17T09:36:30.542Z,31.20
2018-07-17T09:38:59.694Z,30.30
2018-07-17T09:41:28.512Z,30.70
2018-07-17T09:43:57.397Z,30.70
2018-07-17T09:46:26.303Z,30.00
2018-07-17T09:48:55.242Z,30.30
2018-07-17T09:51:24.167Z,30.80
2018-07-17T09:53:53.174Z,30.00
2018-07-17T09:56:22.170Z,27.90
2018-07-17T09:58:51.966Z,27.50
2018-07-17T10:01:26.186Z,26.50
2018-07-17T10:03:55.098Z,27.00
2018-07-17T10:06:24.017Z,26.80
2018-07-17T10:08:52.982Z,26.40
2018-07-17T10:11:22.900Z,24.70
2018-07-17T10:13:52.698Z,25.30
2018-07-17T10:16:21.639Z,23.80
2018-07-17T10:18:50.590Z,23.10
2018-07-17T10:21:19.499Z,23.10
2018-07-17T10:23:48.374Z,24.60
2018-07-17T10:26:17.308Z,22.30
2018-07-17T10:28:46.185Z,21.10
2018-07-17T10:31:15.063Z,23.00
2018-07-17T10:33:43.946Z,23.80
2018-07-17T10:36:12.830Z,21.70
2018-07-17T10:38:41.765Z,21.80
2018-07-17T10:41:10.822Z,22.20
2018-07-17T10:43:39.695Z,22.50
2018-07-17T10:46:08.703Z,21.90
2018-07-17T10:48:37.642Z,22.20
2018-07-17T10:51:06.570Z,24.00
2018-07-17T10:53:35.446Z,24.00
2018-07-17T10:56:04.382Z,23.10
2018-07-17T10:58:33.297Z,23.10
2018-07-17T11:01:02.251Z,23.80
2018-07-17T11:03:31.046Z,24.30
2018-07-17T11:05:59.942Z,25.10
2018-07-17T11:08:28.854Z,25.40
2018-07-17T11:10:57.707Z,25.20
2018-07-17T11:13:26.579Z,25.40
2018-07-17T11:15:55.467Z,25.00
2018-07-17T11:18:24.410Z,25.40
2018-07-17T11:20:53.466Z,25.30
2018-07-17T11:23:22.478Z,23.90
2018-07-17T11:25:51.401Z,24.50
2018-07-17T11:28:20.315Z,23.50
2018-07-17T11:30:49.231Z,20.20
2018-07-17T11:33:18.418Z,20.20
2018-07-17T11:35:47.540Z,19.90
2018-07-17T11:38:16.438Z,19.50
2018-07-17T11:40:45.331Z,19.50
2018-07-17T11:43:14.273Z,18.70
2018-07-17T11:45:43.182Z,19.70
2018-07-17T11:50:40.608Z,18.80
2018-07-17T11:53:09.475Z,18.40
2018-07-17T11:55:38.466Z,17.00
2018-07-17T11:58:07.353Z,16.60
2018-07-17T12:00:36.290Z,16.90
2018-07-17T12:03:05.265Z,16.60
2018-07-17T12:05:34.222Z,16.90
2018-07-17T12:08:03.082Z,17.10
2018-07-17T12:10:31.965Z,16.70
2018-07-17T12:13:01.223Z,16.30
2018-07-17T12:15:30.154Z,15.30
2018-07-17T12:17:59.025Z,17.00
2018-07-17T12:20:28.062Z,16.50
2018-07-17T12:22:56.846Z,15.30
2018-07-17T12:25:25.759Z,16.20
2018-07-17T12:27:54.702Z,14.50
2018-07-17T12:30:23.579Z,14.90
2018-07-17T12:32:52.518Z,14.50
2018-07-17T12:35:21.492Z,14.50
2018-07-17T12:37:50.409Z,14.50
2018-07-17T12:40:19.365Z,13.90
2018-07-17T12:42:48.351Z,14.50
2018-07-17T12:45:17.303Z,14.30
2018-07-17T12:47:46.275Z,15.00
2018-07-17T12:52:43.678Z,15.00
2018-07-17T12:55:12.614Z,15.20
2018-07-17T12:57:41.554Z,13.80
2018-07-17T13:00:10.516Z,14.20
2018-07-17T13:02:39.437Z,13.60
2018-07-17T13:05:08.326Z,15.30
2018-07-17T13:07:37.249Z,13.60
2018-07-17T13:10:06.470Z,13.60
2018-07-17T13:12:35.368Z,13.30
2018-07-17T13:15:06.579Z,14.80
2018-07-17T13:17:35.656Z,12.90
2018-07-17T13:20:04.923Z,13.50
2018-07-17T13:22:33.821Z,13.30
2018-07-17T13:25:02.830Z,12.80
2018-07-17T13:27:31.798Z,12.40
2018-07-17T13:30:00.817Z,11.50
2018-07-17T13:32:29.686Z,12.70
2018-07-17T13:34:58.568Z,11.30
2018-07-17T13:37:27.543Z,11.40
2018-07-17T13:39:56.454Z,10.40
2018-07-17T13:42:30.416Z,10.80
2018-07-17T13:45:02.482Z,11.50
2018-07-17T13:47:31.416Z,11.00
2018-07-17T13:50:00.434Z,10.50
2018-07-17T13:52:31.984Z,9.80
2018-07-17T13:55:00.912Z,9.70
2018-07-17T13:57:29.866Z,10.20
2018-07-17T13:59:59.089Z,10.90
2018-07-17T14:02:28.190Z,10.00
2018-07-17T14:04:57.114Z,9.60
2018-07-17T14:07:26.189Z,9.10
2018-07-17T14:09:55.082Z,8.00
2018-07-17T14:12:29.311Z,8.60
2018-07-17T14:14:58.297Z,9.70
2018-07-17T14:17:27.428Z,10.40
2018-07-17T14:19:56.258Z,9.90
2018-07-17T14:22:25.404Z,10.10
2018-07-17T14:24:54.334Z,9.70
2018-07-17T14:27:24.663Z,9.80
2018-07-17T14:29:54.202Z,10.00
2018-07-17T14:32:23.195Z,9.70
2018-07-17T14:34:52.259Z,9.30
2018-07-17T14:37:21.194Z,11.40
2018-07-17T14:42:18.775Z,14.20
2018-07-17T14:44:47.757Z,14.60
2018-07-17T14:47:16.911Z,15.10
2018-07-17T14:52:15.253Z,14.80
2018-07-17T14:54:44.286Z,13.80
2018-07-17T14:57:13.169Z,14.00
2018-07-17T14:59:45.030Z,12.10
2018-07-17T15:02:14.060Z,11.00
2018-07-17T15:04:43.046Z,10.90
2018-07-17T15:07:11.985Z,10.10
2018-07-17T15:09:40.955Z,10.50
2018-07-17T15:12:09.916Z,11.50
2018-07-17T15:14:38.802Z,11.60
2018-07-17T15:17:07.855Z,11.80
2018-07-17T15:19:36.835Z,13.80
2018-07-17T15:22:06.071Z,14.40
2018-07-17T15:24:35.014Z,15.00
2018-07-17T15:27:04.082Z,14.50
2018-07-17T15:29:33.046Z,14.70
2018-07-17T15:32:02.282Z,11.20
2018-07-17T15:34:31.886Z,11.40
2018-07-17T15:37:00.782Z,12.40
2018-07-17T15:39:29.678Z,10.90
2018-07-17T15:41:58.611Z,11.00
2018-07-17T15:44:27.548Z,10.80
2018-07-17T15:46:57.822Z,10.20
2018-07-17T15:49:26.838Z,10.60
2018-07-17T15:51:55.724Z,8.50
2018-07-17T15:54:24.734Z,8.10
2018-07-17T15:56:53.618Z,8.10
2018-07-17T15:59:22.582Z,7.90
2018-07-17T16:01:51.599Z,9.30
2018-07-17T16:04:20.518Z,8.40
2018-07-17T16:06:49.486Z,8.10
2018-07-17T16:09:18.455Z,8.20
2018-07-17T16:11:47.314Z,8.20
2018-07-17T16:14:16.639Z,8.90
2018-07-17T16:16:45.175Z,8.00
2018-07-17T16:19:14.070Z,8.30
2018-07-17T16:21:43.055Z,9.10
2018-07-17T16:26:40.718Z,9.10
2018-07-17T16:29:09.614Z,8.30
2018-07-17T16:31:38.514Z,8.50
2018-07-17T16:34:10.732Z,8.80
2018-07-17T16:36:39.842Z,8.30
2018-07-17T16:39:08.733Z,8.40
2018-07-17T16:41:37.598Z,8.80
2018-07-17T16:44:06.566Z,9.50
2018-07-17T16:46:35.449Z,9.70
2018-07-17T16:49:04.431Z,9.40
2018-07-17T16:51:33.298Z,9.60
2018-07-17T16:54:02.269Z,9.80
2018-07-17T16:56:31.368Z,10.30
2018-07-17T16:59:00.415Z,10.70
2018-07-17T17:01:29.345Z,12.00
2018-07-17T17:03:58.270Z,13.90
2018-07-17T17:06:27.153Z,14.10
2018-07-17T17:08:56.109Z,14.90
2018-07-17T17:11:24.958Z,15.10
2018-07-17T17:13:54.058Z,15.40
2018-07-17T17:16:22.963Z,14.50
2018-07-17T17:18:51.912Z,13.90
2018-07-17T17:21:20.839Z,13.60
2018-07-17T17:26:19.254Z,13.30
2018-07-17T17:28:48.219Z,13.00
2018-07-17T17:31:17.102Z,14.20
2018-07-17T17:33:46.022Z,14.40
2018-07-17T17:36:15.193Z,14.80
2018-07-17T17:38:44.050Z,15.70
2018-07-17T17:41:13.030Z,16.70
2018-07-17T17:43:41.922Z,17.20
2018-07-17T17:46:10.805Z,17.60
2018-07-17T17:48:39.978Z,17.20
2018-07-17T17:51:09.104Z,17.90
2018-07-17T17:53:37.981Z,18.30
2018-07-17T17:56:06.887Z,18.80
2018-07-17T17:58:35.822Z,19.10
2018-07-17T18:03:33.862Z,19.40
2018-07-17T18:06:03.110Z,19.60
2018-07-17T18:08:32.106Z,19.50
2018-07-17T18:11:00.983Z,19.70
2018-07-17T18:13:29.891Z,20.20
2018-07-17T18:15:58.791Z,20.20
2018-07-17T18:18:27.670Z,20.20
2018-07-17T18:20:56.550Z,20.10
2018-07-17T18:23:25.455Z,20.10
2018-07-17T18:25:54.389Z,20.40
2018-07-17T18:28:23.333Z,20.60
2018-07-17T18:30:52.234Z,20.70
2018-07-17T18:33:21.109Z,20.70
2018-07-17T18:35:50.010Z,20.90
2018-07-17T18:38:19.095Z,21.00
2018-07-17T18:40:47.958Z,21.40
2018-07-17T18:43:16.849Z,21.30
2018-07-17T18:45:45.858Z,21.60
2018-07-17T18:48:15.772Z,21.70
2018-07-17T18:50:44.584Z,22.00
2018-07-17T18:53:13.695Z,22.50
2018-07-17T18:55:42.608Z,22.30
2018-07-17T18:58:11.506Z,22.90
2018-07-17T19:00:40.476Z,23.10
2018-07-17T19:03:09.445Z,22.70
2018-07-17T19:05:38.450Z,23.20
2018-07-17T19:08:07.418Z,23.40
2018-07-17T19:10:36.390Z,23.30
2018-07-17T19:13:05.388Z,23.30
2018-07-17T19:15:34.386Z,23.30
2018-07-17T19:18:03.282Z,23.30
2018-07-17T19:20:32.230Z,23.50
2018-07-17T19:23:01.107Z,24.00
2018-07-17T19:25:30.037Z,24.10
2018-07-17T19:27:58.958Z,23.70
2018-07-17T19:30:27.843Z,24.30
2018-07-17T19:32:56.738Z,24.10
2018-07-17T19:35:25.869Z,24.30
2018-07-17T19:37:54.830Z,24.50
2018-07-17T19:40:23.918Z,24.90
2018-07-17T19:42:52.947Z,24.90
2018-07-17T19:45:21.904Z,25.30
2018-07-17T19:47:50.918Z,25.70
2018-07-17T19:50:20.023Z,26.00
2018-07-17T19:52:49.104Z,26.40
2018-07-17T19:55:18.007Z,26.40
2018-07-17T19:57:47.479Z,26.40
2018-07-17T20:00:16.463Z,26.80
2018-07-17T20:02:45.361Z,26.70
2018-07-17T20:07:42.839Z,26.80
2018-07-17T20:10:11.771Z,27.60
2018-07-17T20:12:40.709Z,27.00
2018-07-17T20:15:10.641Z,27.40
2018-07-17T20:17:40.468Z,27.40
2018-07-17T20:20:10.302Z,27.30
2018-07-17T20:22:39.664Z,27.20
2018-07-17T20:25:11.839Z,27.60
2018-07-17T20:27:41.011Z,27.50
2018-07-17T20:30:10.046Z,27.80
2018-07-17T20:32:40.139Z,27.70
2018-07-17T20:35:09.898Z,28.00
2018-07-17T20:37:38.964Z,27.90
2018-07-17T20:40:08.076Z,28.10
2018-07-17T20:42:37.242Z,28.00
2018-07-17T20:45:06.543Z,28.20
2018-07-17T20:47:35.481Z,28.40
2018-07-17T20:50:05.105Z,28.40
2018-07-17T20:55:04.795Z,28.50
2018-07-17T20:57:33.705Z,29.00
2018-07-17T21:00:05.919Z,29.50
2018-07-17T21:02:35.356Z,29.50
2018-07-17T21:05:05.731Z,29.50
2018-07-17T21:07:40.197Z,29.50
2018-07-17T21:10:09.279Z,29.50
2018-07-17T21:12:38.166Z,29.40
2018-07-17T21:15:07.144Z,30.00
2018-07-17T21:17:36.023Z,30.40
2018-07-17T21:20:05.230Z,30.30
2018-07-17T21:22:34.168Z,30.70
2018-07-17T21:25:03.050Z,30.60
2018-07-17T21:27:31.943Z,31.10
2018-07-17T21:30:00.932Z,31.10
2018-07-17T21:32:29.887Z,31.00
2018-07-17T21:34:58.770Z,31.40
2018-07-17T21:37:27.681Z,31.70
2018-07-17T21:39:56.609Z,32.10
2018-07-17T21:42:25.502Z,32.70
2018-07-17T21:44:54.610Z,32.50
2018-07-17T21:47:23.494Z,32.60
2018-07-17T21:49:52.358Z,33.10
2018-07-17T21:52:21.254Z,33.70
2018-07-17T21:54:50.162Z,34.80
2018-07-17T21:57:19.062Z,34.70
2018-07-17T21:59:47.976Z,34.90
2018-07-17T22:02:16.840Z,35.60
2018-07-17T22:04:45.757Z,35.50
2018-07-17T22:07:14.623Z,35.80
2018-07-17T22:09:43.567Z,36.70
2018-07-17T22:12:12.469Z,37.80
2018-07-17T22:14:41.382Z,37.20
2018-07-17T22:17:10.303Z,37.20
2018-07-17T22:19:39.230Z,37.60
2018-07-17T22:22:08.131Z,37.20
2018-07-17T22:24:37.010Z,37.20
2018-07-17T22:27:05.932Z,37.20
2018-07-17T22:29:34.853Z,38.10
2018-07-17T22:32:04.618Z,38.90
2018-07-17T22:34:33.495Z,39.10
2018-07-17T22:37:02.410Z,39.70
2018-07-17T22:39:31.283Z,38.50
2018-07-17T22:42:00.151Z,38.00
2018-07-17T22:44:29.030Z,37.30
2018-07-17T22:46:57.894Z,37.80
2018-07-17T22:49:26.779Z,38.20
2018-07-17T22:51:55.660Z,38.80
2018-07-17T22:54:24.577Z,39.20
2018-07-17T22:56:53.478Z,38.80
2018-07-17T22:59:22.382Z,38.70
2018-07-17T23:01:51.266Z,38.90
2018-07-17T23:04:20.163Z,37.30
2018-07-17T23:06:49.038Z,37.80
2018-07-17T23:09:17.944Z,37.40
2018-07-17T23:11:46.834Z,37.40
2018-07-17T23:14:15.722Z,37.40
2018-07-17T23:16:44.602Z,39.10
2018-07-17T23:19:13.550Z,39.00
2018-07-17T23:21:42.441Z,38.60
2018-07-17T23:24:11.346Z,39.10
2018-07-17T23:26:40.278Z,39.20
2018-07-17T23:29:09.329Z,38.50
2018-07-17T23:31:38.218Z,38.90
2018-07-17T23:34:07.114Z,37.40
2018-07-17T23:36:35.990Z,37.40
2018-07-17T23:39:07.111Z,38.20
2018-07-17T23:41:35.982Z,38.10
2018-07-17T23:44:04.870Z,37.40
2018-07-17T23:46:33.803Z,37.40
2018-07-17T23:49:02.671Z,38.20
2018-07-17T23:51:31.554Z,38.40
2018-07-17T23:54:00.466Z,37.40
2018-07-17T23:56:29.354Z,37.40
2018-07-17T23:58:58.249Z,38.00
